Terminal Aerodrome Forecast
Issued by NWS Twin Cities, MN

Home | Current Version | Previous Version | Text Only | Print | Product List | Glossary On
Versions: 1 2 3 4 5 6 7 8 9 10 11 12 13 14 15
000
FTUS43 KMPX 282300
TAFEAU
TAF
KEAU 282338Z 2900/2924 33008KT P6SM FEW060
     FM290200 32003KT P6SM SCT060
      TEMPO 2903/2907 BKN060
     FM291500 31010KT P6SM BKN050=

USA.gov is the U.S. government's official web portal to all federal, state and local government web resources and services.